Aviation Digital Data Service (ADDS)

Output produced by METARs form (0046 UTC 20 April 2015)
found at http://aviationweather.gov/adds/metars/
 
KDCA 192329Z 2000/2024 08012G20KT P6SM -RA OVC028 
     FM200300 09017G24KT 3SM +RA OVC008 WS020/11040KT 
     FM200800 14016KT 2SM +RA OVC008 
     FM201000 16012KT 3SM -RA OVC008 
     FM201200 18008KT P6SM OVC008 
     FM201400 21009KT P6SM BKN015 
     FM201600 21010KT P6SM BKN040 
     FM202200 21012KT 6SM -SHRA BKN070